sensor_id;sensor_type;location;lat;lon;timestamp;P1;durP1;ratioP1;P2;durP2;ratioP2
18322;SDS011;9287;49.456;11.064;2023-01-26T00:01:22;40.93;;;21.17;;
18322;SDS011;9287;49.456;11.064;2023-01-26T00:03:52;39.00;;;21.67;;
18322;SDS011;9287;49.456;11.064;2023-01-26T00:06:20;36.10;;;20.60;;
18322;SDS011;9287;49.456;11.064;2023-01-26T00:08:50;39.70;;;21.97;;
18322;SDS011;9287;49.456;11.064;2023-01-26T00:11:21;38.30;;;21.73;;
18322;SDS011;9287;49.456;11.064;2023-01-26T00:13:52;37.47;;;19.80;;
18322;SDS011;9287;49.456;11.064;2023-01-26T00:16:20;41.97;;;21.50;;
18322;SDS011;9287;49.456;11.064;2023-01-26T00:18:47;39.93;;;21.53;;
18322;SDS011;9287;49.456;11.064;2023-01-26T00:21:16;40.53;;;21.57;;
18322;SDS011;9287;49.456;11.064;2023-01-26T00:23:45;40.57;;;20.07;;
18322;SDS011;9287;49.456;11.064;2023-01-26T00:26:15;37.97;;;19.10;;
18322;SDS011;9287;49.456;11.064;2023-01-26T00:28:45;38.83;;;20.63;;
18322;SDS011;9287;49.456;11.064;2023-01-26T00:31:14;36.30;;;20.83;;
18322;SDS011;9287;49.456;11.064;2023-01-26T00:33:43;38.97;;;21.53;;
18322;SDS011;9287;49.456;11.064;2023-01-26T00:36:11;39.90;;;21.77;;
18322;SDS011;9287;49.456;11.064;2023-01-26T00:38:40;39.60;;;22.20;;
18322;SDS011;9287;49.456;11.064;2023-01-26T00:41:08;38.90;;;21.57;;
18322;SDS011;9287;49.456;11.064;2023-01-26T00:43:57;40.13;;;20.90;;
18322;SDS011;9287;49.456;11.064;2023-01-26T00:46:25;40.87;;;22.93;;
18322;SDS011;9287;49.456;11.064;2023-01-26T00:48:52;38.50;;;21.70;;
18322;SDS011;9287;49.456;11.064;2023-01-26T00:51:21;38.30;;;21.13;;
18322;SDS011;9287;49.456;11.064;2023-01-26T00:53:49;40.50;;;21.03;;
18322;SDS011;9287;49.456;11.064;2023-01-26T00:56:16;39.90;;;21.57;;
18322;SDS011;9287;49.456;11.064;2023-01-26T00:58:44;36.13;;;21.63;;
18322;SDS011;9287;49.456;11.064;2023-01-26T01:01:14;38.70;;;21.77;;
18322;SDS011;9287;49.456;11.064;2023-01-26T01:03:41;36.63;;;21.33;;
18322;SDS011;9287;49.456;11.064;2023-01-26T01:06:09;38.57;;;21.80;;
18322;SDS011;9287;49.456;11.064;2023-01-26T01:08:37;36.10;;;20.83;;
18322;SDS011;9287;49.456;11.064;2023-01-26T01:11:05;38.87;;;22.00;;
18322;SDS011;9287;49.456;11.064;2023-01-26T01:13:34;39.00;;;21.77;;
18322;SDS011;9287;49.456;11.064;2023-01-26T01:16:03;37.27;;;20.50;;
18322;SDS011;9287;49.456;11.064;2023-01-26T01:18:33;35.73;;;19.53;;
18322;SDS011;9287;49.456;11.064;2023-01-26T01:21:04;38.37;;;20.20;;
18322;SDS011;9287;49.456;11.064;2023-01-26T01:23:32;39.83;;;19.90;;
18322;SDS011;9287;49.456;11.064;2023-01-26T01:26:00;36.23;;;20.83;;
18322;SDS011;9287;49.456;11.064;2023-01-26T01:28:28;30.57;;;17.23;;
18322;SDS011;9287;49.456;11.064;2023-01-26T01:30:56;34.57;;;19.90;;
18322;SDS011;9287;49.456;11.064;2023-01-26T01:33:24;31.50;;;17.67;;
18322;SDS011;9287;49.456;11.064;2023-01-26T01:35:56;34.83;;;18.97;;
18322;SDS011;9287;49.456;11.064;2023-01-26T01:38:24;37.83;;;18.80;;
18322;SDS011;9287;49.456;11.064;2023-01-26T01:40:54;31.90;;;18.13;;
18322;SDS011;9287;49.456;11.064;2023-01-26T01:43:22;36.93;;;18.80;;
18322;SDS011;9287;49.456;11.064;2023-01-26T01:45:52;34.77;;;18.67;;
18322;SDS011;9287;49.456;11.064;2023-01-26T01:48:22;35.53;;;17.97;;
18322;SDS011;9287;49.456;11.064;2023-01-26T01:50:54;36.20;;;19.33;;
18322;SDS011;9287;49.456;11.064;2023-01-26T01:53:27;33.10;;;19.30;;
18322;SDS011;9287;49.456;11.064;2023-01-26T01:55:57;33.20;;;19.77;;
18322;SDS011;9287;49.456;11.064;2023-01-26T01:58:28;32.13;;;17.63;;
18322;SDS011;9287;49.456;11.064;2023-01-26T02:01:00;35.43;;;19.33;;
18322;SDS011;9287;49.456;11.064;2023-01-26T02:03:27;31.57;;;18.10;;
18322;SDS011;9287;49.456;11.064;2023-01-26T02:06:00;34.67;;;18.30;;
18322;SDS011;9287;49.456;11.064;2023-01-26T02:08:35;35.93;;;19.60;;
18322;SDS011;9287;49.456;11.064;2023-01-26T02:11:06;39.80;;;19.73;;
18322;SDS011;9287;49.456;11.064;2023-01-26T02:13:37;37.23;;;19.37;;
18322;SDS011;9287;49.456;11.064;2023-01-26T02:16:07;32.83;;;18.57;;
18322;SDS011;9287;49.456;11.064;2023-01-26T02:18:34;34.33;;;18.30;;
18322;SDS011;9287;49.456;11.064;2023-01-26T02:21:04;36.33;;;17.70;;
18322;SDS011;9287;49.456;11.064;2023-01-26T02:23:36;33.10;;;19.20;;
18322;SDS011;9287;49.456;11.064;2023-01-26T02:26:13;32.67;;;18.20;;
18322;SDS011;9287;49.456;11.064;2023-01-26T02:28:43;33.90;;;18.67;;
18322;SDS011;9287;49.456;11.064;2023-01-26T02:31:13;32.97;;;17.70;;
18322;SDS011;9287;49.456;11.064;2023-01-26T02:33:42;34.70;;;18.83;;
18322;SDS011;9287;49.456;11.064;2023-01-26T02:36:15;34.87;;;18.27;;
18322;SDS011;9287;49.456;11.064;2023-01-26T02:38:48;33.67;;;19.57;;
18322;SDS011;9287;49.456;11.064;2023-01-26T02:41:21;35.10;;;19.37;;
18322;SDS011;9287;49.456;11.064;2023-01-26T02:44:07;40.97;;;20.90;;
18322;SDS011;9287;49.456;11.064;2023-01-26T02:46:37;41.30;;;21.77;;
18322;SDS011;9287;49.456;11.064;2023-01-26T02:49:05;43.47;;;23.47;;
18322;SDS011;9287;49.456;11.064;2023-01-26T02:52:05;43.83;;;21.30;;
18322;SDS011;9287;49.456;11.064;2023-01-26T02:54:34;41.93;;;21.87;;
18322;SDS011;9287;49.456;11.064;2023-01-26T02:57:20;40.13;;;20.77;;
18322;SDS011;9287;49.456;11.064;2023-01-26T02:59:48;42.53;;;20.70;;
18322;SDS011;9287;49.456;11.064;2023-01-26T03:02:16;42.30;;;21.53;;
18322;SDS011;9287;49.456;11.064;2023-01-26T03:04:44;38.60;;;20.77;;
18322;SDS011;9287;49.456;11.064;2023-01-26T03:07:11;37.60;;;20.63;;
18322;SDS011;9287;49.456;11.064;2023-01-26T03:09:39;38.13;;;20.53;;
18322;SDS011;9287;49.456;11.064;2023-01-26T03:12:07;40.03;;;21.40;;
18322;SDS011;9287;49.456;11.064;2023-01-26T03:14:36;38.00;;;20.17;;
18322;SDS011;9287;49.456;11.064;2023-01-26T03:17:04;36.07;;;19.90;;
18322;SDS011;9287;49.456;11.064;2023-01-26T03:19:31;40.50;;;20.13;;
18322;SDS011;9287;49.456;11.064;2023-01-26T03:22:17;33.97;;;19.60;;
18322;SDS011;9287;49.456;11.064;2023-01-26T03:25:02;41.77;;;21.07;;
18322;SDS011;9287;49.456;11.064;2023-01-26T03:27:48;40.47;;;20.80;;
18322;SDS011;9287;49.456;11.064;2023-01-26T03:30:17;46.17;;;22.03;;
18322;SDS011;9287;49.456;11.064;2023-01-26T03:32:45;46.30;;;22.10;;
18322;SDS011;9287;49.456;11.064;2023-01-26T03:35:13;42.00;;;22.57;;
18322;SDS011;9287;49.456;11.064;2023-01-26T03:37:47;42.60;;;21.90;;
18322;SDS011;9287;49.456;11.064;2023-01-26T03:40:20;43.33;;;22.93;;
18322;SDS011;9287;49.456;11.064;2023-01-26T03:43:06;46.30;;;22.43;;
18322;SDS011;9287;49.456;11.064;2023-01-26T03:45:53;41.47;;;21.77;;
18322;SDS011;9287;49.456;11.064;2023-01-26T03:48:38;41.87;;;21.37;;
18322;SDS011;9287;49.456;11.064;2023-01-26T03:51:24;48.57;;;22.00;;
18322;SDS011;9287;49.456;11.064;2023-01-26T03:54:09;41.30;;;20.77;;
18322;SDS011;9287;49.456;11.064;2023-01-26T03:56:54;41.77;;;21.87;;
18322;SDS011;9287;49.456;11.064;2023-01-26T03:59:22;45.43;;;22.27;;
18322;SDS011;9287;49.456;11.064;2023-01-26T04:02:04;40.60;;;22.30;;
18322;SDS011;9287;49.456;11.064;2023-01-26T04:04:50;39.00;;;19.73;;
18322;SDS011;9287;49.456;11.064;2023-01-26T04:07:36;37.20;;;19.27;;
18322;SDS011;9287;49.456;11.064;2023-01-26T04:10:22;35.17;;;18.97;;
18322;SDS011;9287;49.456;11.064;2023-01-26T04:12:51;37.47;;;18.37;;
18322;SDS011;9287;49.456;11.064;2023-01-26T04:15:36;35.07;;;18.00;;
18322;SDS011;9287;49.456;11.064;2023-01-26T04:18:23;34.07;;;19.10;;
18322;SDS011;9287;49.456;11.064;2023-01-26T04:21:08;35.70;;;18.67;;
18322;SDS011;9287;49.456;11.064;2023-01-26T04:23:55;38.57;;;20.77;;
18322;SDS011;9287;49.456;11.064;2023-01-26T04:26:24;34.50;;;18.33;;
18322;SDS011;9287;49.456;11.064;2023-01-26T04:28:59;37.90;;;18.60;;
18322;SDS011;9287;49.456;11.064;2023-01-26T04:31:28;36.70;;;19.17;;
18322;SDS011;9287;49.456;11.064;2023-01-26T04:33:57;35.73;;;17.97;;
18322;SDS011;9287;49.456;11.064;2023-01-26T04:36:25;33.67;;;18.37;;
18322;SDS011;9287;49.456;11.064;2023-01-26T04:38:53;34.97;;;18.07;;
18322;SDS011;9287;49.456;11.064;2023-01-26T04:41:21;32.87;;;17.90;;
18322;SDS011;9287;49.456;11.064;2023-01-26T04:43:49;34.77;;;17.47;;
18322;SDS011;9287;49.456;11.064;2023-01-26T04:46:16;36.77;;;18.93;;
18322;SDS011;9287;49.456;11.064;2023-01-26T04:48:44;40.43;;;20.00;;
18322;SDS011;9287;49.456;11.064;2023-01-26T04:51:14;38.37;;;18.93;;
18322;SDS011;9287;49.456;11.064;2023-01-26T04:53:45;33.03;;;17.17;;
18322;SDS011;9287;49.456;11.064;2023-01-26T04:56:14;37.93;;;18.03;;
18322;SDS011;9287;49.456;11.064;2023-01-26T04:58:46;35.60;;;18.07;;
18322;SDS011;9287;49.456;11.064;2023-01-26T05:01:14;37.90;;;19.43;;
18322;SDS011;9287;49.456;11.064;2023-01-26T05:03:41;34.10;;;17.63;;
18322;SDS011;9287;49.456;11.064;2023-01-26T05:06:09;35.63;;;18.10;;
18322;SDS011;9287;49.456;11.064;2023-01-26T05:08:39;35.30;;;17.83;;
18322;SDS011;9287;49.456;11.064;2023-01-26T05:11:06;31.37;;;17.43;;
18322;SDS011;9287;49.456;11.064;2023-01-26T05:13:34;30.63;;;16.77;;
18322;SDS011;9287;49.456;11.064;2023-01-26T05:16:03;33.97;;;18.50;;
18322;SDS011;9287;49.456;11.064;2023-01-26T05:18:31;29.77;;;16.13;;
18322;SDS011;9287;49.456;11.064;2023-01-26T05:20:58;29.40;;;16.13;;
18322;SDS011;9287;49.456;11.064;2023-01-26T05:23:26;30.30;;;16.00;;
18322;SDS011;9287;49.456;11.064;2023-01-26T05:25:55;28.10;;;15.17;;
18322;SDS011;9287;49.456;11.064;2023-01-26T05:28:23;29.57;;;16.50;;
18322;SDS011;9287;49.456;11.064;2023-01-26T05:30:51;27.53;;;13.83;;
18322;SDS011;9287;49.456;11.064;2023-01-26T05:33:18;27.87;;;13.90;;
18322;SDS011;9287;49.456;11.064;2023-01-26T05:35:47;28.97;;;14.73;;
18322;SDS011;9287;49.456;11.064;2023-01-26T05:38:15;29.10;;;15.50;;
18322;SDS011;9287;49.456;11.064;2023-01-26T05:40:43;28.90;;;15.07;;
18322;SDS011;9287;49.456;11.064;2023-01-26T05:43:12;28.80;;;16.13;;
18322;SDS011;9287;49.456;11.064;2023-01-26T05:45:40;27.73;;;15.37;;
18322;SDS011;9287;49.456;11.064;2023-01-26T05:48:08;27.30;;;15.13;;
18322;SDS011;9287;49.456;11.064;2023-01-26T05:50:36;29.67;;;16.00;;
18322;SDS011;9287;49.456;11.064;2023-01-26T05:53:03;26.47;;;14.23;;
18322;SDS011;9287;49.456;11.064;2023-01-26T05:55:31;24.03;;;13.70;;
18322;SDS011;9287;49.456;11.064;2023-01-26T05:57:59;26.00;;;13.87;;
18322;SDS011;9287;49.456;11.064;2023-01-26T06:00:28;26.13;;;13.53;;
18322;SDS011;9287;49.456;11.064;2023-01-26T06:02:56;20.50;;;11.83;;
18322;SDS011;9287;49.456;11.064;2023-01-26T06:05:24;23.97;;;12.57;;
18322;SDS011;9287;49.456;11.064;2023-01-26T06:07:51;24.60;;;13.30;;
18322;SDS011;9287;49.456;11.064;2023-01-26T06:10:19;24.57;;;13.47;;
18322;SDS011;9287;49.456;11.064;2023-01-26T06:12:46;23.60;;;13.07;;
18322;SDS011;9287;49.456;11.064;2023-01-26T06:15:14;23.73;;;13.33;;
18322;SDS011;9287;49.456;11.064;2023-01-26T06:17:43;24.90;;;13.10;;
18322;SDS011;9287;49.456;11.064;2023-01-26T06:20:11;24.63;;;13.40;;
18322;SDS011;9287;49.456;11.064;2023-01-26T06:22:39;22.73;;;12.17;;
18322;SDS011;9287;49.456;11.064;2023-01-26T06:25:07;23.93;;;12.63;;
18322;SDS011;9287;49.456;11.064;2023-01-26T06:27:35;22.27;;;13.10;;
18322;SDS011;9287;49.456;11.064;2023-01-26T06:30:08;22.77;;;12.83;;
18322;SDS011;9287;49.456;11.064;2023-01-26T06:32:36;25.63;;;13.83;;
18322;SDS011;9287;49.456;11.064;2023-01-26T06:35:06;24.23;;;13.37;;
18322;SDS011;9287;49.456;11.064;2023-01-26T06:37:34;26.93;;;13.90;;
18322;SDS011;9287;49.456;11.064;2023-01-26T06:40:02;27.40;;;13.53;;
18322;SDS011;9287;49.456;11.064;2023-01-26T06:42:31;29.23;;;14.03;;
18322;SDS011;9287;49.456;11.064;2023-01-26T06:44:58;26.53;;;14.50;;
18322;SDS011;9287;49.456;11.064;2023-01-26T06:47:26;23.97;;;12.73;;
18322;SDS011;9287;49.456;11.064;2023-01-26T06:49:54;26.27;;;14.27;;
18322;SDS011;9287;49.456;11.064;2023-01-26T06:52:25;25.20;;;13.23;;
18322;SDS011;9287;49.456;11.064;2023-01-26T06:54:56;28.27;;;14.60;;
18322;SDS011;9287;49.456;11.064;2023-01-26T06:57:26;24.40;;;13.40;;
18322;SDS011;9287;49.456;11.064;2023-01-26T06:59:53;25.07;;;14.20;;
18322;SDS011;9287;49.456;11.064;2023-01-26T07:02:22;25.67;;;13.00;;
18322;SDS011;9287;49.456;11.064;2023-01-26T07:04:52;21.53;;;12.43;;
18322;SDS011;9287;49.456;11.064;2023-01-26T07:07:19;24.43;;;12.30;;
18322;SDS011;9287;49.456;11.064;2023-01-26T07:09:48;24.47;;;13.40;;
18322;SDS011;9287;49.456;11.064;2023-01-26T07:12:16;25.87;;;13.83;;
18322;SDS011;9287;49.456;11.064;2023-01-26T07:14:44;28.67;;;14.07;;
18322;SDS011;9287;49.456;11.064;2023-01-26T07:17:12;25.73;;;13.00;;
18322;SDS011;9287;49.456;11.064;2023-01-26T07:19:39;21.80;;;11.60;;
18322;SDS011;9287;49.456;11.064;2023-01-26T07:22:07;23.97;;;12.83;;
18322;SDS011;9287;49.456;11.064;2023-01-26T07:24:35;24.17;;;12.87;;
18322;SDS011;9287;49.456;11.064;2023-01-26T07:27:04;24.93;;;13.13;;
18322;SDS011;9287;49.456;11.064;2023-01-26T07:29:32;23.87;;;12.40;;
18322;SDS011;9287;49.456;11.064;2023-01-26T07:32:00;22.13;;;12.87;;
18322;SDS011;9287;49.456;11.064;2023-01-26T07:34:28;19.50;;;11.43;;
18322;SDS011;9287;49.456;11.064;2023-01-26T07:36:55;23.13;;;12.57;;
18322;SDS011;9287;49.456;11.064;2023-01-26T07:39:23;22.93;;;12.23;;
18322;SDS011;9287;49.456;11.064;2023-01-26T07:41:52;17.47;;;10.33;;
18322;SDS011;9287;49.456;11.064;2023-01-26T07:44:21;21.53;;;12.00;;
18322;SDS011;9287;49.456;11.064;2023-01-26T07:46:48;23.00;;;12.27;;
18322;SDS011;9287;49.456;11.064;2023-01-26T07:49:16;21.23;;;11.77;;
18322;SDS011;9287;49.456;11.064;2023-01-26T07:51:44;19.90;;;10.60;;
18322;SDS011;9287;49.456;11.064;2023-01-26T07:54:12;22.43;;;12.13;;
18322;SDS011;9287;49.456;11.064;2023-01-26T07:56:39;21.70;;;11.87;;
18322;SDS011;9287;49.456;11.064;2023-01-26T07:59:08;22.50;;;11.73;;
18322;SDS011;9287;49.456;11.064;2023-01-26T08:01:38;18.97;;;10.67;;
18322;SDS011;9287;49.456;11.064;2023-01-26T08:04:06;17.60;;;11.07;;
18322;SDS011;9287;49.456;11.064;2023-01-26T08:06:34;20.50;;;10.97;;
18322;SDS011;9287;49.456;11.064;2023-01-26T08:09:02;20.57;;;11.73;;
18322;SDS011;9287;49.456;11.064;2023-01-26T08:11:30;20.33;;;11.07;;
18322;SDS011;9287;49.456;11.064;2023-01-26T08:13:57;24.23;;;11.70;;
18322;SDS011;9287;49.456;11.064;2023-01-26T08:16:25;23.70;;;12.40;;
18322;SDS011;9287;49.456;11.064;2023-01-26T08:18:54;18.93;;;11.30;;
18322;SDS011;9287;49.456;11.064;2023-01-26T08:21:22;21.87;;;11.17;;
18322;SDS011;9287;49.456;11.064;2023-01-26T08:23:50;21.20;;;11.37;;
18322;SDS011;9287;49.456;11.064;2023-01-26T08:26:18;20.13;;;11.20;;
18322;SDS011;9287;49.456;11.064;2023-01-26T08:28:47;18.23;;;10.13;;
18322;SDS011;9287;49.456;11.064;2023-01-26T08:31:15;18.97;;;10.40;;
18322;SDS011;9287;49.456;11.064;2023-01-26T08:33:46;19.10;;;10.67;;
18322;SDS011;9287;49.456;11.064;2023-01-26T08:36:17;18.77;;;10.60;;
18322;SDS011;9287;49.456;11.064;2023-01-26T08:38:48;16.93;;;9.10;;
18322;SDS011;9287;49.456;11.064;2023-01-26T08:41:16;16.93;;;9.63;;
18322;SDS011;9287;49.456;11.064;2023-01-26T08:43:44;17.23;;;8.73;;
18322;SDS011;9287;49.456;11.064;2023-01-26T08:46:12;17.77;;;9.27;;
18322;SDS011;9287;49.456;11.064;2023-01-26T08:48:40;14.93;;;8.53;;
18322;SDS011;9287;49.456;11.064;2023-01-26T08:51:07;17.07;;;9.00;;
18322;SDS011;9287;49.456;11.064;2023-01-26T08:53:36;18.37;;;9.90;;
18322;SDS011;9287;49.456;11.064;2023-01-26T08:56:05;18.03;;;9.63;;
18322;SDS011;9287;49.456;11.064;2023-01-26T08:58:34;15.20;;;8.47;;
18322;SDS011;9287;49.456;11.064;2023-01-26T09:01:02;16.80;;;8.73;;
18322;SDS011;9287;49.456;11.064;2023-01-26T09:03:31;17.73;;;9.50;;
18322;SDS011;9287;49.456;11.064;2023-01-26T09:05:59;17.13;;;10.10;;
18322;SDS011;9287;49.456;11.064;2023-01-26T09:08:27;16.07;;;9.73;;
18322;SDS011;9287;49.456;11.064;2023-01-26T09:10:57;14.60;;;8.40;;
18322;SDS011;9287;49.456;11.064;2023-01-26T09:13:24;16.33;;;9.17;;
18322;SDS011;9287;49.456;11.064;2023-01-26T09:15:52;18.53;;;9.90;;
18322;SDS011;9287;49.456;11.064;2023-01-26T09:18:20;18.43;;;10.13;;
18322;SDS011;9287;49.456;11.064;2023-01-26T09:20:48;17.07;;;9.40;;
18322;SDS011;9287;49.456;11.064;2023-01-26T09:23:16;17.13;;;9.37;;
18322;SDS011;9287;49.456;11.064;2023-01-26T09:25:44;18.83;;;10.30;;
18322;SDS011;9287;49.456;11.064;2023-01-26T09:28:13;19.30;;;9.83;;
18322;SDS011;9287;49.456;11.064;2023-01-26T09:30:41;16.53;;;9.73;;
18322;SDS011;9287;49.456;11.064;2023-01-26T09:33:08;19.73;;;9.10;;
18322;SDS011;9287;49.456;11.064;2023-01-26T09:35:36;14.70;;;8.43;;
18322;SDS011;9287;49.456;11.064;2023-01-26T09:38:04;16.90;;;9.03;;
18322;SDS011;9287;49.456;11.064;2023-01-26T09:40:35;18.23;;;9.43;;
18322;SDS011;9287;49.456;11.064;2023-01-26T09:43:19;16.83;;;8.83;;
18322;SDS011;9287;49.456;11.064;2023-01-26T09:45:53;16.47;;;8.03;;
18322;SDS011;9287;49.456;11.064;2023-01-26T09:48:30;14.37;;;7.70;;
18322;SDS011;9287;49.456;11.064;2023-01-26T09:51:05;15.60;;;8.17;;
18322;SDS011;9287;49.456;11.064;2023-01-26T09:53:39;14.47;;;8.80;;
18322;SDS011;9287;49.456;11.064;2023-01-26T09:56:14;16.17;;;8.03;;
18322;SDS011;9287;49.456;11.064;2023-01-26T09:58:48;15.93;;;8.37;;
18322;SDS011;9287;49.456;11.064;2023-01-26T10:01:23;14.23;;;7.93;;
18322;SDS011;9287;49.456;11.064;2023-01-26T10:04:00;13.40;;;7.77;;
18322;SDS011;9287;49.456;11.064;2023-01-26T10:06:34;14.17;;;8.10;;
18322;SDS011;9287;49.456;11.064;2023-01-26T10:09:05;15.20;;;8.43;;
18322;SDS011;9287;49.456;11.064;2023-01-26T10:11:42;18.30;;;9.57;;
18322;SDS011;9287;49.456;11.064;2023-01-26T10:14:14;18.37;;;9.73;;
18322;SDS011;9287;49.456;11.064;2023-01-26T10:16:48;18.90;;;10.13;;
18322;SDS011;9287;49.456;11.064;2023-01-26T10:19:20;16.67;;;10.23;;
18322;SDS011;9287;49.456;11.064;2023-01-26T10:21:59;19.07;;;9.90;;
18322;SDS011;9287;49.456;11.064;2023-01-26T10:24:32;20.43;;;10.20;;
18322;SDS011;9287;49.456;11.064;2023-01-26T10:27:00;18.37;;;9.93;;
18322;SDS011;9287;49.456;11.064;2023-01-26T10:29:29;16.40;;;9.00;;
18322;SDS011;9287;49.456;11.064;2023-01-26T10:31:57;15.13;;;9.30;;
18322;SDS011;9287;49.456;11.064;2023-01-26T10:34:25;18.47;;;9.30;;
18322;SDS011;9287;49.456;11.064;2023-01-26T10:36:55;16.87;;;8.87;;
18322;SDS011;9287;49.456;11.064;2023-01-26T10:39:28;17.47;;;9.07;;
18322;SDS011;9287;49.456;11.064;2023-01-26T10:41:57;17.03;;;9.37;;
18322;SDS011;9287;49.456;11.064;2023-01-26T10:44:30;17.73;;;10.17;;
18322;SDS011;9287;49.456;11.064;2023-01-26T10:47:01;19.43;;;11.03;;
18322;SDS011;9287;49.456;11.064;2023-01-26T10:49:31;18.23;;;10.50;;
18322;SDS011;9287;49.456;11.064;2023-01-26T10:52:06;19.03;;;11.00;;
18322;SDS011;9287;49.456;11.064;2023-01-26T10:54:40;19.93;;;11.17;;
18322;SDS011;9287;49.456;11.064;2023-01-26T10:57:13;23.23;;;12.17;;
18322;SDS011;9287;49.456;11.064;2023-01-26T10:59:49;19.87;;;11.67;;
18322;SDS011;9287;49.456;11.064;2023-01-26T11:02:22;20.83;;;11.80;;
18322;SDS011;9287;49.456;11.064;2023-01-26T11:05:00;20.97;;;11.27;;
18322;SDS011;9287;49.456;11.064;2023-01-26T11:07:31;19.37;;;11.40;;
18322;SDS011;9287;49.456;11.064;2023-01-26T11:10:19;20.03;;;11.00;;
18322;SDS011;9287;49.456;11.064;2023-01-26T11:12:50;19.23;;;11.00;;
18322;SDS011;9287;49.456;11.064;2023-01-26T11:15:20;21.37;;;11.33;;
18322;SDS011;9287;49.456;11.064;2023-01-26T11:17:54;19.77;;;11.40;;
18322;SDS011;9287;49.456;11.064;2023-01-26T11:20:32;21.97;;;11.17;;
18322;SDS011;9287;49.456;11.064;2023-01-26T11:23:12;20.53;;;11.63;;
18322;SDS011;9287;49.456;11.064;2023-01-26T11:25:48;22.97;;;11.90;;
18322;SDS011;9287;49.456;11.064;2023-01-26T11:28:35;19.93;;;10.97;;
18322;SDS011;9287;49.456;11.064;2023-01-26T11:31:17;21.60;;;11.77;;
18322;SDS011;9287;49.456;11.064;2023-01-26T11:33:58;21.43;;;10.87;;
18322;SDS011;9287;49.456;11.064;2023-01-26T11:36:37;24.93;;;12.63;;
18322;SDS011;9287;49.456;11.064;2023-01-26T11:39:15;22.97;;;11.77;;
18322;SDS011;9287;49.456;11.064;2023-01-26T11:41:52;23.13;;;11.60;;
18322;SDS011;9287;49.456;11.064;2023-01-26T11:44:39;22.23;;;11.67;;
18322;SDS011;9287;49.456;11.064;2023-01-26T11:47:28;24.33;;;11.93;;
18322;SDS011;9287;49.456;11.064;2023-01-26T11:50:09;22.40;;;12.87;;
18322;SDS011;9287;49.456;11.064;2023-01-26T11:52:48;24.17;;;11.33;;
18322;SDS011;9287;49.456;11.064;2023-01-26T11:55:24;22.33;;;12.53;;
18322;SDS011;9287;49.456;11.064;2023-01-26T11:58:01;22.60;;;12.60;;
18322;SDS011;9287;49.456;11.064;2023-01-26T12:00:41;22.13;;;11.77;;
18322;SDS011;9287;49.456;11.064;2023-01-26T12:03:17;23.60;;;11.53;;
18322;SDS011;9287;49.456;11.064;2023-01-26T12:05:50;19.37;;;10.20;;
18322;SDS011;9287;49.456;11.064;2023-01-26T12:08:21;23.73;;;12.33;;
18322;SDS011;9287;49.456;11.064;2023-01-26T12:10:56;22.70;;;12.70;;
18322;SDS011;9287;49.456;11.064;2023-01-26T12:13:49;25.43;;;12.77;;
18322;SDS011;9287;49.456;11.064;2023-01-26T12:16:26;21.73;;;12.10;;
18322;SDS011;9287;49.456;11.064;2023-01-26T12:19:04;25.30;;;12.90;;
18322;SDS011;9287;49.456;11.064;2023-01-26T12:21:39;22.50;;;12.30;;
18322;SDS011;9287;49.456;11.064;2023-01-26T12:24:12;19.43;;;10.93;;
18322;SDS011;9287;49.456;11.064;2023-01-26T12:27:09;23.23;;;11.73;;
18322;SDS011;9287;49.456;11.064;2023-01-26T12:29:44;24.43;;;12.00;;
18322;SDS011;9287;49.456;11.064;2023-01-26T12:32:17;20.00;;;11.63;;
18322;SDS011;9287;49.456;11.064;2023-01-26T12:34:46;25.63;;;11.70;;
18322;SDS011;9287;49.456;11.064;2023-01-26T12:37:20;21.10;;;11.47;;
18322;SDS011;9287;49.456;11.064;2023-01-26T12:40:11;22.23;;;11.27;;
18322;SDS011;9287;49.456;11.064;2023-01-26T12:42:45;21.00;;;11.33;;
18322;SDS011;9287;49.456;11.064;2023-01-26T12:45:24;24.03;;;12.73;;
18322;SDS011;9287;49.456;11.064;2023-01-26T12:47:58;19.23;;;11.97;;
18322;SDS011;9287;49.456;11.064;2023-01-26T12:50:37;21.33;;;11.40;;
18322;SDS011;9287;49.456;11.064;2023-01-26T12:53:09;23.83;;;12.33;;
18322;SDS011;9287;49.456;11.064;2023-01-26T12:55:41;19.83;;;10.50;;
18322;SDS011;9287;49.456;11.064;2023-01-26T12:58:13;22.77;;;11.63;;
18322;SDS011;9287;49.456;11.064;2023-01-26T13:00:52;20.57;;;11.77;;
18322;SDS011;9287;49.456;11.064;2023-01-26T13:03:27;24.23;;;12.97;;
18322;SDS011;9287;49.456;11.064;2023-01-26T13:06:00;21.90;;;11.93;;
18322;SDS011;9287;49.456;11.064;2023-01-26T13:08:38;19.97;;;12.73;;
18322;SDS011;9287;49.456;11.064;2023-01-26T13:14:29;20.10;;;12.10;;
18322;SDS011;9287;49.456;11.064;2023-01-26T13:20:07;24.27;;;12.37;;
18322;SDS011;9287;49.456;11.064;2023-01-26T13:22:49;23.37;;;12.53;;
18322;SDS011;9287;49.456;11.064;2023-01-26T13:25:18;21.57;;;11.87;;
18322;SDS011;9287;49.456;11.064;2023-01-26T13:27:53;24.60;;;13.23;;
18322;SDS011;9287;49.456;11.064;2023-01-26T13:30:27;28.53;;;15.33;;
18322;SDS011;9287;49.456;11.064;2023-01-26T13:33:12;28.97;;;16.13;;
18322;SDS011;9287;49.456;11.064;2023-01-26T13:35:44;31.47;;;17.53;;
18322;SDS011;9287;49.456;11.064;2023-01-26T13:38:19;33.27;;;18.43;;
18322;SDS011;9287;49.456;11.064;2023-01-26T13:40:54;33.20;;;18.40;;
18322;SDS011;9287;49.456;11.064;2023-01-26T13:43:24;33.17;;;18.13;;
18322;SDS011;9287;49.456;11.064;2023-01-26T13:45:58;35.93;;;19.33;;
18322;SDS011;9287;49.456;11.064;2023-01-26T13:48:36;34.47;;;18.97;;
18322;SDS011;9287;49.456;11.064;2023-01-26T13:51:11;33.90;;;18.53;;
18322;SDS011;9287;49.456;11.064;2023-01-26T13:53:43;33.70;;;19.50;;
18322;SDS011;9287;49.456;11.064;2023-01-26T13:56:19;31.90;;;17.80;;
18322;SDS011;9287;49.456;11.064;2023-01-26T13:58:51;38.97;;;18.70;;
18322;SDS011;9287;49.456;11.064;2023-01-26T14:01:19;31.80;;;18.17;;
18322;SDS011;9287;49.456;11.064;2023-01-26T14:03:47;30.97;;;18.10;;
18322;SDS011;9287;49.456;11.064;2023-01-26T14:06:15;34.97;;;17.77;;
18322;SDS011;9287;49.456;11.064;2023-01-26T14:08:50;29.30;;;18.17;;
18322;SDS011;9287;49.456;11.064;2023-01-26T14:11:20;32.40;;;18.47;;
18322;SDS011;9287;49.456;11.064;2023-01-26T14:13:50;35.27;;;18.90;;
18322;SDS011;9287;49.456;11.064;2023-01-26T14:16:22;32.27;;;17.93;;
18322;SDS011;9287;49.456;11.064;2023-01-26T14:19:02;31.43;;;17.27;;
18322;SDS011;9287;49.456;11.064;2023-01-26T14:21:31;32.40;;;17.63;;
18322;SDS011;9287;49.456;11.064;2023-01-26T14:24:00;37.50;;;17.77;;
18322;SDS011;9287;49.456;11.064;2023-01-26T14:26:29;28.83;;;16.53;;
18322;SDS011;9287;49.456;11.064;2023-01-26T14:28:58;32.07;;;17.87;;
18322;SDS011;9287;49.456;11.064;2023-01-26T14:31:27;30.17;;;17.07;;
18322;SDS011;9287;49.456;11.064;2023-01-26T14:33:56;31.73;;;19.40;;
18322;SDS011;9287;49.456;11.064;2023-01-26T14:36:26;34.67;;;19.70;;
18322;SDS011;9287;49.456;11.064;2023-01-26T14:38:57;33.27;;;18.33;;
18322;SDS011;9287;49.456;11.064;2023-01-26T14:41:28;30.40;;;16.63;;
18322;SDS011;9287;49.456;11.064;2023-01-26T14:43:58;28.33;;;16.27;;
18322;SDS011;9287;49.456;11.064;2023-01-26T14:46:28;28.50;;;16.50;;
18322;SDS011;9287;49.456;11.064;2023-01-26T14:49:02;27.00;;;16.07;;
18322;SDS011;9287;49.456;11.064;2023-01-26T14:51:35;29.53;;;17.10;;
18322;SDS011;9287;49.456;11.064;2023-01-26T14:54:05;29.93;;;16.87;;
18322;SDS011;9287;49.456;11.064;2023-01-26T14:56:44;25.90;;;14.90;;